Time;durP1;ratioP1;P1;durP2;ratioP2;P2;SDS_P1;SDS_P2;PMS_P1;PMS_P2;Temp;Humidity;BMP_temperature;BMP_pressure;BME280_temperature;BME280_humidity;BME280_pressure;Samples;Min_cycle;Max_cycle;Signal;HPM_P1;HPM_P2
2022/02/21 00:00:37;;;;;;;120.15;44.55;;;8.20;99.90;;;;;;6154441;23;20005;-81
2022/02/21 00:03:06;;;;;;;108.70;45.13;;;8.20;99.90;;;;;;6155363;23;20067;-81
2022/02/21 00:05:33;;;;;;;114.30;45.40;;;8.20;99.90;;;;;;6155379;23;20005;-80
2022/02/21 00:07:59;;;;;;;106.78;45.28;;;8.20;99.90;;;;;;6155496;23;20001;-81
2022/02/21 00:10:25;;;;;;;108.90;42.05;;;8.20;99.90;;;;;;6155438;23;20388;-81
2022/02/21 00:12:51;;;;;;;111.38;43.70;;;8.20;99.90;;;;;;6129237;23;20008;-81
2022/02/21 00:15:23;;;;;;;101.90;42.03;;;8.30;99.90;;;;;;6155123;23;20005;-80
2022/02/21 00:17:50;;;;;;;109.40;42.65;;;8.30;99.90;;;;;;6153874;23;20009;-81
2022/02/21 00:20:15;;;;;;;110.43;43.63;;;8.30;99.90;;;;;;6129157;23;20033;-82
2022/02/21 00:22:41;;;;;;;103.45;42.05;;;8.30;99.90;;;;;;6155208;23;20425;-81
2022/02/21 00:25:08;;;;;;;113.22;45.42;;;8.30;99.90;;;;;;6155192;23;20060;-80
2022/02/21 00:27:34;;;;;;;114.32;42.05;;;8.30;99.90;;;;;;6128973;23;20005;-81
2022/02/21 00:30:00;;;;;;;102.90;43.20;;;8.30;99.90;;;;;;6155160;23;20024;-81
2022/02/21 00:32:26;;;;;;;107.47;41.35;;;8.20;99.90;;;;;;6155422;23;20426;-81
2022/02/21 00:34:51;;;;;;;105.63;42.60;;;8.20;99.90;;;;;;6155230;23;20001;-81
2022/02/21 00:37:17;;;;;;;110.15;44.13;;;8.20;99.90;;;;;;6154966;23;20281;-80
2022/02/21 00:39:43;;;;;;;106.93;43.72;;;8.20;99.90;;;;;;6155338;23;20418;-81
2022/02/21 00:42:08;;;;;;;110.00;44.63;;;8.20;99.90;;;;;;6129028;23;20025;-81
2022/02/21 00:44:34;;;;;;;108.32;42.83;;;8.20;99.90;;;;;;6154967;23;20315;-81
2022/02/21 00:47:00;;;;;;;100.82;39.40;;;8.20;99.90;;;;;;6155037;23;20006;-80
2022/02/21 00:49:26;;;;;;;101.78;41.80;;;8.20;99.90;;;;;;6154953;23;20002;-81
2022/02/21 00:51:52;;;;;;;105.20;41.30;;;8.20;99.90;;;;;;6154945;23;20024;-81
2022/02/21 00:54:18;;;;;;;101.80;41.67;;;8.30;99.90;;;;;;6155279;23;19997;-82
2022/02/21 00:56:44;;;;;;;102.50;42.10;;;8.20;99.90;;;;;;6154826;23;20434;-81
2022/02/21 00:59:10;;;;;;;107.35;43.20;;;8.30;99.90;;;;;;6154866;23;20056;-81
2022/02/21 01:01:35;;;;;;;95.38;40.28;;;8.30;99.90;;;;;;6155066;23;20052;-81
2022/02/21 01:04:01;;;;;;;105.10;40.20;;;8.30;99.90;;;;;;6154877;23;20035;-81
2022/02/21 01:06:27;;;;;;;98.40;39.75;;;8.30;99.90;;;;;;6154666;23;20315;-81
2022/02/21 01:08:52;;;;;;;105.38;41.00;;;8.30;99.90;;;;;;6155043;23;19997;-81
2022/02/21 01:11:20;;;;;;;94.15;39.55;;;8.30;99.90;;;;;;6128043;23;20402;-81
2022/02/21 01:13:46;;;;;;;105.03;40.70;;;8.30;99.90;;;;;;6128411;23;20088;-81
2022/02/21 01:16:12;;;;;;;95.95;39.25;;;8.30;99.90;;;;;;6128855;23;20450;-81
2022/02/21 01:18:38;;;;;;;105.45;39.95;;;8.30;99.90;;;;;;6154569;23;20005;-81
2022/02/21 01:21:05;;;;;;;105.68;41.67;;;8.40;99.90;;;;;;6154769;23;20445;-81
2022/02/21 01:23:31;;;;;;;95.95;39.75;;;8.40;99.90;;;;;;6128515;23;20009;-81
2022/02/21 01:25:57;;;;;;;106.00;38.85;;;8.40;99.90;;;;;;6154377;23;19997;-80
2022/02/21 01:28:22;;;;;;;97.20;37.83;;;8.40;99.90;;;;;;6154440;23;20393;-82
2022/02/21 01:30:48;;;;;;;98.47;38.88;;;8.40;99.90;;;;;;6128525;23;20064;-80
2022/02/21 01:33:14;;;;;;;86.68;39.85;;;8.40;99.90;;;;;;6154488;23;20025;-81
2022/02/21 01:35:39;;;;;;;99.18;39.17;;;8.50;99.90;;;;;;6128462;23;20438;-82
2022/02/21 01:38:05;;;;;;;90.35;36.35;;;8.50;99.90;;;;;;6128510;23;20002;-81
2022/02/21 01:40:31;;;;;;;92.95;37.85;;;8.50;99.90;;;;;;6154386;23;20006;-80
2022/02/21 01:42:57;;;;;;;96.63;38.20;;;8.50;99.90;;;;;;6154609;23;20383;-81
2022/02/21 01:45:23;;;;;;;90.53;36.95;;;8.50;99.90;;;;;;6154431;23;20029;-81
2022/02/21 01:47:49;;;;;;;92.32;39.58;;;8.50;99.90;;;;;;6154338;23;19997;-81
2022/02/21 01:50:15;;;;;;;89.45;36.33;;;8.50;99.90;;;;;;6128284;23;20009;-81
2022/02/21 01:52:41;;;;;;;91.43;37.40;;;8.50;99.90;;;;;;6154678;23;20434;-81
2022/02/21 01:55:07;;;;;;;96.45;38.58;;;8.50;99.90;;;;;;6154240;23;20002;-79
2022/02/21 01:57:33;;;;;;;85.22;36.17;;;8.50;99.90;;;;;;6154344;23;20080;-81
2022/02/21 01:59:59;;;;;;;91.28;36.85;;;8.50;99.90;;;;;;6154493;23;20433;-81
2022/02/21 02:02:25;;;;;;;94.40;37.60;;;8.50;99.90;;;;;;6128158;23;20052;-81
2022/02/21 02:04:51;;;;;;;103.10;37.88;;;8.50;99.90;;;;;;6154308;23;20315;-81
2022/02/21 02:07:17;;;;;;;95.25;37.42;;;8.50;99.90;;;;;;6154022;23;19998;-82
2022/02/21 02:09:43;;;;;;;96.22;36.58;;;8.50;99.90;;;;;;6127985;23;20008;-81
2022/02/21 02:12:09;;;;;;;92.90;37.90;;;8.50;99.90;;;;;;6154165;23;20430;-81
2022/02/21 02:14:38;;;;;;;87.32;35.97;;;8.60;99.90;;;;;;6154292;23;20056;-82
2022/02/21 02:17:07;;;;;;;92.05;36.58;;;8.50;99.90;;;;;;6127859;23;20064;-81
2022/02/21 02:19:33;;;;;;;86.07;36.15;;;8.50;99.90;;;;;;6154092;23;20056;-82
2022/02/21 02:22:13;;;;;;;88.28;35.72;;;8.50;99.90;;;;;;6154135;23;20064;-82
2022/02/21 02:24:40;;;;;;;86.72;35.80;;;8.50;99.90;;;;;;6153931;23;20014;-81
2022/02/21 02:27:08;;;;;;;83.35;35.17;;;8.50;99.90;;;;;;6153885;23;20113;-81
2022/02/21 02:29:36;;;;;;;92.22;37.38;;;8.50;99.90;;;;;;6128069;23;20001;-82
2022/02/21 02:32:02;;;;;;;84.78;36.60;;;8.50;99.90;;;;;;6155439;23;19997;-81
2022/02/21 02:34:28;;;;;;;88.97;36.97;;;8.50;99.90;;;;;;6154821;23;20508;-81
2022/02/21 02:36:54;;;;;;;92.50;35.03;;;8.50;99.90;;;;;;6154344;23;20002;-81
2022/02/21 02:39:19;;;;;;;90.68;36.38;;;8.50;99.90;;;;;;6128710;23;20009;-81
2022/02/21 02:41:46;;;;;;;88.25;34.30;;;8.50;99.90;;;;;;6154177;23;20412;-81
2022/02/21 02:44:12;;;;;;;95.60;35.67;;;8.50;99.90;;;;;;6153777;23;20005;-81
2022/02/21 02:46:38;;;;;;;83.18;35.28;;;8.50;99.90;;;;;;6127687;23;20449;-82
2022/02/21 02:49:04;;;;;;;90.40;35.42;;;8.50;99.90;;;;;;6127719;23;20006;-81
2022/02/21 02:51:29;;;;;;;93.60;35.67;;;8.50;99.90;;;;;;6153721;23;20026;-82
2022/02/21 02:53:55;;;;;;;84.40;35.67;;;8.50;99.90;;;;;;6153961;23;20020;-81
2022/02/21 02:56:21;;;;;;;88.18;34.97;;;8.50;99.90;;;;;;6153680;23;20009;-81
2022/02/21 02:58:47;;;;;;;88.35;35.35;;;8.50;99.90;;;;;;6127719;23;20033;-81
2022/02/21 03:01:13;;;;;;;84.30;34.78;;;8.50;99.90;;;;;;6153975;23;20013;-82
2022/02/21 03:03:39;;;;;;;89.30;34.97;;;8.50;99.90;;;;;;6153800;23;20342;-82
2022/02/21 03:06:04;;;;;;;81.15;33.97;;;8.50;99.90;;;;;;6153676;23;20017;-82
2022/02/21 03:08:30;;;;;;;88.57;35.15;;;8.40;99.90;;;;;;6127624;23;20005;-81
2022/02/21 03:10:56;;;;;;;88.85;34.95;;;8.40;99.90;;;;;;6153623;23;20012;-81
2022/02/21 03:13:23;;;;;;;89.00;34.72;;;8.50;99.90;;;;;;6153710;23;20005;-81
2022/02/21 03:15:48;;;;;;;82.22;33.28;;;8.50;99.90;;;;;;6153784;23;20005;-81
2022/02/21 03:18:14;;;;;;;80.78;36.00;;;8.40;99.90;;;;;;6153527;23;20069;-82
2022/02/21 03:20:40;;;;;;;84.88;34.15;;;8.40;99.90;;;;;;6153630;23;20017;-81
2022/02/21 03:23:06;;;;;;;92.65;35.65;;;8.40;99.90;;;;;;6153824;23;20009;-81
2022/02/21 03:25:31;;;;;;;89.43;36.47;;;8.40;99.90;;;;;;6153386;23;20014;-81
2022/02/21 03:27:57;;;;;;;89.45;35.97;;;8.40;99.90;;;;;;6153572;23;20052;-81
2022/02/21 03:30:23;;;;;;;87.32;36.38;;;8.40;99.90;;;;;;6152023;23;20009;-82
2022/02/21 03:32:49;;;;;;;95.43;36.33;;;8.50;99.90;;;;;;6127420;23;20271;-81
2022/02/21 03:35:14;;;;;;;94.18;37.60;;;8.50;99.90;;;;;;6154522;23;20001;-81
2022/02/21 03:37:41;;;;;;;96.93;36.50;;;8.50;99.90;;;;;;6155727;23;20006;-81
2022/02/21 03:40:08;;;;;;;97.28;37.10;;;8.50;99.90;;;;;;6155484;23;20006;-81
2022/02/21 03:42:35;;;;;;;92.32;34.65;;;8.50;99.90;;;;;;6129397;23;20005;-82
2022/02/21 03:45:02;;;;;;;81.72;35.40;;;8.60;99.90;;;;;;6129471;23;20084;-81
2022/02/21 03:47:28;;;;;;;85.22;35.53;;;8.50;99.90;;;;;;6155387;23;20005;-81
2022/02/21 03:49:54;;;;;;;83.93;35.47;;;8.50;99.90;;;;;;6155489;23;20059;-81
2022/02/21 03:52:19;;;;;;;89.70;35.55;;;8.50;99.90;;;;;;6155687;23;20001;-81
2022/02/21 03:54:45;;;;;;;85.50;35.17;;;8.50;99.90;;;;;;6129330;23;20028;-82
2022/02/21 03:57:11;;;;;;;79.50;35.60;;;8.50;99.90;;;;;;6155339;23;20325;-82
2022/02/21 03:59:37;;;;;;;85.95;33.80;;;8.50;99.90;;;;;;6155520;23;20341;-80
2022/02/21 04:02:02;;;;;;;89.95;35.92;;;8.50;99.90;;;;;;6155275;23;20010;-81
2022/02/21 04:04:28;;;;;;;90.35;34.08;;;8.50;99.90;;;;;;6155396;23;20338;-81
2022/02/21 04:06:54;;;;;;;78.38;35.70;;;8.60;99.90;;;;;;6129187;23;20005;-81
2022/02/21 04:09:19;;;;;;;89.15;35.72;;;8.60;99.90;;;;;;6155313;23;20362;-81
2022/02/21 04:11:45;;;;;;;90.43;37.03;;;8.60;99.90;;;;;;6155476;23;20001;-81
2022/02/21 04:14:11;;;;;;;85.53;33.35;;;8.60;99.90;;;;;;6155248;23;20024;-82
2022/02/21 04:16:37;;;;;;;87.80;36.42;;;8.60;99.90;;;;;;6155114;23;19993;-81
2022/02/21 04:19:03;;;;;;;85.50;35.03;;;8.60;99.90;;;;;;6155357;23;20433;-81
2022/02/21 04:21:29;;;;;;;79.95;33.75;;;8.50;99.90;;;;;;6155207;23;20002;-81
2022/02/21 04:23:55;;;;;;;86.07;33.67;;;8.50;99.90;;;;;;6154961;23;20025;-82
2022/02/21 04:26:21;;;;;;;84.95;34.15;;;8.50;99.90;;;;;;6129021;23;20013;-81
2022/02/21 04:28:47;;;;;;;81.40;33.20;;;8.50;99.90;;;;;;6155303;23;19998;-81
2022/02/21 04:31:17;;;;;;;94.75;36.33;;;8.50;99.90;;;;;;6155086;23;20005;-81
2022/02/21 04:33:44;;;;;;;87.20;35.33;;;8.50;99.90;;;;;;6154933;23;20084;-81
2022/02/21 04:36:11;;;;;;;83.00;36.42;;;8.50;99.90;;;;;;6155162;23;20205;-81
2022/02/21 04:38:37;;;;;;;80.00;33.40;;;8.50;99.90;;;;;;6155402;23;20137;-81
2022/02/21 04:41:03;;;;;;;85.28;35.53;;;8.50;99.90;;;;;;6155051;23;20413;-82
2022/02/21 04:43:28;;;;;;;85.57;36.05;;;8.50;99.90;;;;;;6155100;23;20012;-81
2022/02/21 04:45:55;;;;;;;86.05;37.03;;;8.50;99.90;;;;;;6154766;23;20009;-81
2022/02/21 04:48:25;;;;;;;87.47;35.65;;;8.50;99.90;;;;;;6154890;23;20002;-81
2022/02/21 04:50:52;;;;;;;86.25;36.63;;;8.60;99.90;;;;;;6154926;23;19998;-82
2022/02/21 04:53:18;;;;;;;96.07;39.08;;;8.60;99.90;;;;;;6154977;23;20001;-81
2022/02/21 04:55:44;;;;;;;80.90;35.40;;;8.60;99.90;;;;;;6129008;23;20030;-81
2022/02/21 04:58:10;;;;;;;91.18;36.28;;;8.60;99.90;;;;;;6128666;23;19994;-82
2022/02/21 05:00:36;;;;;;;81.28;34.13;;;8.60;99.90;;;;;;6154829;23;20011;-81
2022/02/21 05:03:02;;;;;;;86.10;35.08;;;8.60;99.90;;;;;;6128898;23;20013;-81
2022/02/21 05:05:28;;;;;;;90.78;35.95;;;8.60;99.90;;;;;;6154690;23;20001;-81
2022/02/21 05:07:53;;;;;;;85.80;35.40;;;8.50;99.90;;;;;;6154751;23;20080;-81
2022/02/21 05:10:19;;;;;;;84.30;34.85;;;8.50;99.90;;;;;;6155154;23;20032;-81
2022/02/21 05:12:45;;;;;;;89.60;37.10;;;8.50;99.90;;;;;;6128552;23;20327;-81
2022/02/21 05:15:12;;;;;;;88.97;37.53;;;8.50;99.90;;;;;;6154910;23;20005;-81
2022/02/21 05:17:38;;;;;;;92.50;35.08;;;8.50;99.90;;;;;;6154461;23;20084;-81
2022/02/21 05:20:05;;;;;;;93.70;35.85;;;8.50;99.90;;;;;;6154664;23;20013;-81
2022/02/21 05:22:31;;;;;;;85.28;37.10;;;8.50;99.90;;;;;;6154539;23;20009;-81
2022/02/21 05:24:57;;;;;;;89.13;35.38;;;8.50;99.90;;;;;;6154552;23;20014;-80
2022/02/21 05:27:23;;;;;;;95.10;38.05;;;8.50;99.90;;;;;;6154481;23;20315;-81
2022/02/21 05:29:49;;;;;;;89.93;36.08;;;8.50;99.90;;;;;;6153933;23;20080;-81
2022/02/21 05:32:15;;;;;;;92.18;35.88;;;8.50;99.90;;;;;;6156221;23;20487;-81
2022/02/21 05:34:41;;;;;;;100.07;38.20;;;8.60;99.90;;;;;;6156181;23;20002;-81
2022/02/21 05:37:07;;;;;;;88.85;37.45;;;8.60;99.90;;;;;;6154441;23;20002;-81
2022/02/21 05:39:36;;;;;;;106.50;38.88;;;8.50;99.90;;;;;;6154643;23;20439;-81
2022/02/21 05:42:03;;;;;;;92.68;39.10;;;8.60;99.90;;;;;;6154289;23;20008;-81
2022/02/21 05:44:29;;;;;;;92.95;36.95;;;8.60;99.90;;;;;;6153921;23;20006;-81
2022/02/21 05:46:55;;;;;;;90.13;36.95;;;8.60;99.90;;;;;;6127001;23;20009;-81
2022/02/21 05:49:21;;;;;;;93.47;37.00;;;8.60;99.90;;;;;;6128163;23;20009;-81
2022/02/21 05:51:47;;;;;;;92.43;38.95;;;8.60;99.90;;;;;;6154510;23;20368;-81
2022/02/21 05:54:13;;;;;;;96.88;39.03;;;8.60;99.90;;;;;;6154377;23;20001;-81
2022/02/21 05:56:38;;;;;;;88.00;39.30;;;8.50;99.90;;;;;;6128192;23;20036;-81
2022/02/21 05:59:04;;;;;;;91.78;37.22;;;8.50;99.90;;;;;;6128031;23;20012;-81
2022/02/21 06:01:30;;;;;;;101.75;39.83;;;8.50;99.90;;;;;;6155348;23;20009;-81
2022/02/21 06:03:56;;;;;;;98.53;39.17;;;8.50;99.90;;;;;;6155613;23;20001;-81
2022/02/21 06:06:22;;;;;;;91.43;40.30;;;8.40;99.90;;;;;;6155702;23;20429;-81
2022/02/21 06:08:47;;;;;;;104.32;42.00;;;8.40;99.90;;;;;;6155958;23;19998;-81
2022/02/21 06:11:13;;;;;;;99.18;40.83;;;8.30;99.90;;;;;;6155936;23;20002;-82
2022/02/21 06:13:39;;;;;;;107.90;41.28;;;8.30;99.90;;;;;;6155751;23;20008;-80
2022/02/21 06:16:05;;;;;;;112.88;44.15;;;8.30;99.90;;;;;;6155720;23;20008;-81
2022/02/21 06:18:32;;;;;;;104.07;41.65;;;8.30;99.90;;;;;;6155749;23;20009;-81
2022/02/21 06:20:58;;;;;;;105.65;42.25;;;8.30;99.90;;;;;;6155780;23;20002;-81
2022/02/21 06:23:23;;;;;;;108.70;42.83;;;8.30;99.90;;;;;;6155665;23;20006;-80
2022/02/21 06:25:49;;;;;;;108.50;43.35;;;8.20;99.90;;;;;;6154714;23;20017;-81
2022/02/21 06:28:15;;;;;;;114.53;43.65;;;8.20;99.90;;;;;;6153362;23;19997;-73
2022/02/21 06:30:41;;;;;;;120.38;47.88;;;8.20;99.90;;;;;;6153645;23;20002;-73
2022/02/21 06:33:07;;;;;;;115.10;48.17;;;8.20;99.90;;;;;;6153474;23;20334;-73
2022/02/21 06:35:33;;;;;;;117.75;48.22;;;8.20;99.90;;;;;;6151704;23;20005;-73
2022/02/21 06:37:59;;;;;;;117.80;47.53;;;8.20;99.90;;;;;;6151650;23;20012;-73
2022/02/21 06:40:28;;;;;;;117.38;47.55;;;8.20;99.90;;;;;;6125691;23;20037;-73
2022/02/21 06:42:54;;;;;;;131.35;48.10;;;8.20;99.90;;;;;;6151559;23;20508;-73
2022/02/21 06:45:21;;;;;;;108.82;45.40;;;8.20;99.90;;;;;;6151549;23;20060;-73
2022/02/21 06:47:47;;;;;;;125.90;49.47;;;8.20;99.90;;;;;;6151528;23;20004;-73
2022/02/21 06:50:13;;;;;;;115.03;47.47;;;8.30;99.90;;;;;;6153376;23;20005;-73
2022/02/21 06:52:39;;;;;;;113.97;46.20;;;8.30;99.90;;;;;;6153857;23;20006;-73
2022/02/21 06:55:07;;;;;;;107.05;46.03;;;8.30;99.90;;;;;;6154051;23;20001;-73
2022/02/21 06:57:33;;;;;;;101.78;41.70;;;8.40;99.90;;;;;;6153844;23;20006;-74
2022/02/21 06:59:59;;;;;;;114.00;40.80;;;8.40;99.90;;;;;;6153740;23;20372;-73
2022/02/21 07:02:24;;;;;;;96.55;40.95;;;8.40;99.90;;;;;;6153923;23;20005;-73
2022/02/21 07:04:52;;;;;;;95.00;38.25;;;8.50;99.90;;;;;;6154066;23;20307;-73
2022/02/21 07:07:18;;;;;;;98.20;41.97;;;8.50;99.90;;;;;;6153749;23;20036;-73
2022/02/21 07:09:44;;;;;;;109.72;43.45;;;8.50;99.90;;;;;;6153757;23;20001;-74
2022/02/21 07:12:10;;;;;;;111.60;44.92;;;8.40;99.90;;;;;;6154087;23;20002;-73
2022/02/21 07:14:35;;;;;;;110.22;46.08;;;8.40;99.90;;;;;;6154411;23;20001;-73
2022/02/21 07:17:01;;;;;;;111.05;45.42;;;8.50;99.90;;;;;;6153985;23;20037;-73
2022/02/21 07:19:27;;;;;;;108.63;45.08;;;8.50;99.90;;;;;;6127972;23;20033;-73
2022/02/21 07:21:53;;;;;;;109.38;45.90;;;8.50;99.90;;;;;;6153821;23;20010;-73
2022/02/21 07:24:20;;;;;;;113.88;46.90;;;8.50;99.90;;;;;;6163005;23;20044;-74
2022/02/21 07:26:45;;;;;;;104.25;43.95;;;8.60;99.90;;;;;;6183591;23;20080;-73
2022/02/21 07:29:11;;;;;;;102.35;44.35;;;8.60;99.90;;;;;;6184027;23;20491;-73
2022/02/21 07:31:38;;;;;;;106.18;44.90;;;8.60;99.90;;;;;;6183973;23;20456;-73
2022/02/21 07:34:03;;;;;;;114.00;44.85;;;8.70;99.90;;;;;;6157354;23;20056;-73
2022/02/21 07:36:29;;;;;;;115.32;44.72;;;8.70;99.90;;;;;;6183640;23;20005;-73
2022/02/21 07:38:55;;;;;;;103.18;42.38;;;8.80;99.90;;;;;;6183327;23;20028;-73
2022/02/21 07:41:21;;;;;;;114.28;43.75;;;8.80;99.90;;;;;;6157771;23;20488;-73
2022/02/21 07:43:47;;;;;;;110.13;45.35;;;8.80;99.90;;;;;;6184430;23;20080;-73
2022/02/21 07:46:13;;;;;;;110.43;44.28;;;8.90;99.90;;;;;;6157372;23;20040;-73
2022/02/21 07:48:39;;;;;;;110.13;43.40;;;8.90;99.90;;;;;;6184245;23;20080;-73
2022/02/21 07:51:04;;;;;;;114.60;44.70;;;9.00;99.90;;;;;;6183978;23;20503;-73
2022/02/21 07:53:30;;;;;;;117.82;44.40;;;9.00;99.90;;;;;;6184181;23;20488;-73
2022/02/21 07:55:56;;;;;;;117.30;47.35;;;9.00;99.90;;;;;;6184182;23;20310;-73
2022/02/21 07:58:22;;;;;;;103.30;43.70;;;9.10;99.90;;;;;;6184647;23;20005;-73
2022/02/21 08:00:48;;;;;;;111.88;44.58;;;9.10;99.90;;;;;;6157749;23;20414;-81
2022/02/21 08:03:13;;;;;;;116.07;46.00;;;9.20;99.90;;;;;;6184335;23;20008;-81
2022/02/21 08:05:39;;;;;;;115.93;44.05;;;9.20;99.90;;;;;;6158449;23;20009;-81
2022/02/21 08:08:06;;;;;;;103.93;43.10;;;9.30;99.90;;;;;;6158459;23;20013;-81
2022/02/21 08:10:32;;;;;;;107.40;44.53;;;9.30;99.90;;;;;;6158743;23;20344;-80
2022/02/21 08:12:58;;;;;;;108.10;44.65;;;9.30;99.90;;;;;;6184842;23;20064;-81
2022/02/21 08:15:24;;;;;;;116.80;44.78;;;9.40;99.90;;;;;;6184510;23;20032;-81
2022/02/21 08:17:50;;;;;;;115.43;45.00;;;9.40;99.90;;;;;;6184842;23;20001;-81
2022/02/21 08:20:21;;;;;;;112.30;45.15;;;9.40;99.90;;;;;;6184997;23;20028;-81
2022/02/21 08:22:47;;;;;;;117.20;44.75;;;9.50;99.90;;;;;;6186630;23;20031;-81
2022/02/21 08:25:14;;;;;;;120.82;46.47;;;9.50;99.90;;;;;;6164728;23;20024;-81
2022/02/21 08:27:41;;;;;;;119.93;46.40;;;9.60;99.90;;;;;;6156845;23;20012;-81
2022/02/21 08:30:10;;;;;;;122.32;47.55;;;9.70;99.90;;;;;;6130454;23;20033;-81
2022/02/21 08:32:36;;;;;;;122.00;49.97;;;9.80;99.90;;;;;;6156504;23;20002;-81
2022/02/21 08:35:02;;;;;;;124.55;50.83;;;9.80;99.90;;;;;;6156638;23;20023;-81
2022/02/21 08:37:29;;;;;;;125.80;49.42;;;9.80;99.90;;;;;;6156416;23;20457;-81
2022/02/21 08:39:55;;;;;;;125.03;50.85;;;9.90;99.90;;;;;;6156316;23;20136;-82
2022/02/21 08:42:21;;;;;;;122.05;51.58;;;9.90;99.90;;;;;;6130067;23;20454;-81
2022/02/21 08:44:46;;;;;;;132.02;51.72;;;9.90;99.90;;;;;;6155932;23;20009;-80
2022/02/21 08:47:15;;;;;;;134.25;52.63;;;9.90;99.90;;;;;;6155866;23;20001;-81
2022/02/21 08:49:42;;;;;;;138.57;53.80;;;10.00;99.90;;;;;;6155656;23;20018;-81
2022/02/21 08:52:08;;;;;;;140.13;52.35;;;10.00;99.90;;;;;;6156379;23;20008;-81
2022/02/21 08:54:35;;;;;;;141.90;55.75;;;10.10;99.90;;;;;;6156507;23;20001;-81
2022/02/21 08:57:03;;;;;;;133.52;55.13;;;10.10;99.90;;;;;;6156340;23;20425;-81
2022/02/21 08:59:29;;;;;;;147.07;57.05;;;10.00;99.90;;;;;;6129011;23;20005;-80
2022/02/21 09:01:54;;;;;;;141.00;54.97;;;10.10;99.90;;;;;;6154193;23;20009;-80
2022/02/21 09:04:20;;;;;;;141.30;57.80;;;10.10;99.90;;;;;;6126893;23;20382;-80
2022/02/21 09:06:47;;;;;;;142.20;57.47;;;10.10;99.90;;;;;;6153389;23;20047;-81
2022/02/21 09:09:12;;;;;;;148.93;55.75;;;10.10;99.90;;;;;;6151505;23;20002;-81
2022/02/21 09:11:38;;;;;;;142.80;58.55;;;10.10;99.90;;;;;;6153240;23;20330;-81
2022/02/21 09:14:04;;;;;;;139.48;58.33;;;10.10;99.90;;;;;;6153358;23;19998;-82
2022/02/21 09:16:29;;;;;;;144.90;57.72;;;10.20;99.90;;;;;;6152198;23;20008;-79
2022/02/21 09:18:55;;;;;;;147.10;56.92;;;10.20;99.90;;;;;;6152597;23;20421;-79
2022/02/21 09:21:21;;;;;;;137.82;58.55;;;10.30;99.90;;;;;;6152069;23;20005;-80
2022/02/21 09:23:47;;;;;;;148.20;58.15;;;10.20;99.90;;;;;;6151561;23;20068;-79
2022/02/21 09:26:13;;;;;;;153.57;61.17;;;10.20;99.90;;;;;;6152707;23;20072;-80
2022/02/21 09:28:38;;;;;;;149.32;58.90;;;10.20;99.90;;;;;;6150970;23;20154;-80
2022/02/21 09:31:04;;;;;;;134.52;59.80;;;10.20;99.90;;;;;;6152711;23;20076;-80
2022/02/21 09:33:30;;;;;;;144.35;57.60;;;10.20;99.90;;;;;;6125213;23;20543;-80
2022/02/21 09:35:56;;;;;;;135.95;55.30;;;10.20;99.90;;;;;;6126060;23;20060;-81
2022/02/21 09:38:21;;;;;;;141.20;59.28;;;10.20;99.90;;;;;;6152772;23;20084;-79
2022/02/21 09:40:50;;;;;;;142.70;58.78;;;10.20;99.90;;;;;;6151308;23;20006;-78
2022/02/21 09:43:20;;;;;;;142.77;60.05;;;10.20;99.90;;;;;;6152238;23;20529;-79
2022/02/21 09:45:46;;;;;;;140.50;56.65;;;10.20;99.90;;;;;;6152648;23;20452;-80
2022/02/21 09:48:14;;;;;;;131.95;56.83;;;10.30;99.90;;;;;;6125907;23;20002;-78
2022/02/21 09:50:41;;;;;;;132.77;55.28;;;10.30;99.90;;;;;;6151381;23;20010;-78
2022/02/21 09:53:07;;;;;;;137.18;56.28;;;10.40;99.90;;;;;;6152561;23;20001;-80
2022/02/21 09:55:33;;;;;;;152.35;60.30;;;10.40;99.90;;;;;;6152600;23;20056;-80
2022/02/21 09:58:00;;;;;;;137.23;58.30;;;10.50;99.90;;;;;;6153426;23;20029;-80
2022/02/21 10:00:26;;;;;;;142.43;59.90;;;10.60;99.90;;;;;;6152935;23;20710;-81
2022/02/21 10:02:52;;;;;;;140.85;60.13;;;10.70;99.90;;;;;;6152757;23;20002;-82
2022/02/21 10:05:26;;;;;;;132.50;55.20;;;10.80;99.90;;;;;;6153167;23;20006;-81
2022/02/21 10:07:53;;;;;;;123.15;56.88;;;10.90;99.90;;;;;;6150894;23;20419;-81
2022/02/21 10:10:21;;;;;;;132.02;55.47;;;11.00;99.90;;;;;;6125293;23;20040;-82
2022/02/21 10:13:03;;;;;;;125.65;53.55;;;11.10;99.90;;;;;;6126721;23;20461;-81
2022/02/21 10:15:33;;;;;;;130.10;53.97;;;11.20;99.90;;;;;;6151718;23;20056;-79
2022/02/21 10:18:29;;;;;;;135.82;54.03;;;11.10;99.90;;;;;;6125674;23;20060;-80
2022/02/21 10:20:59;;;;;;;140.23;56.47;;;11.10;99.90;;;;;;6133401;23;20010;-80
2022/02/21 10:23:30;;;;;;;130.18;55.45;;;11.20;99.90;;;;;;6126060;23;20009;-80
2022/02/21 10:26:03;;;;;;;131.07;55.20;;;11.20;99.90;;;;;;6151315;23;20016;-79
2022/02/21 10:28:41;;;;;;;137.65;55.88;;;11.30;99.90;;;;;;6151605;23;20001;-79
2022/02/21 10:31:20;;;;;;;129.45;55.15;;;11.30;99.90;;;;;;6125712;23;20041;-81
2022/02/21 10:34:05;;;;;;;126.38;55.60;;;11.20;99.90;;;;;;6152285;23;20422;-79
2022/02/21 10:36:38;;;;;;;140.38;57.78;;;11.30;99.90;;;;;;6151660;23;20006;-81
2022/02/21 10:39:10;;;;;;;128.88;56.20;;;11.30;99.90;;;;;;6124559;23;20521;-81
2022/02/21 10:41:57;;;;;;;131.65;54.92;;;11.40;99.90;;;;;;6151138;23;20001;-80
2022/02/21 10:44:25;;;;;;;131.75;55.80;;;11.50;99.90;;;;;;6124785;23;20124;-81
2022/02/21 10:47:02;;;;;;;124.85;54.63;;;11.60;99.90;;;;;;6149493;23;20051;-80
2022/02/21 10:49:28;;;;;;;119.75;56.33;;;11.60;99.90;;;;;;6151463;23;20009;-81
2022/02/21 10:51:57;;;;;;;117.15;51.50;;;11.60;99.90;;;;;;6146275;23;20002;-74
2022/02/21 10:54:37;;;;;;;115.60;48.55;;;11.80;99.90;;;;;;6146840;23;20385;-74
2022/02/21 10:57:10;;;;;;;115.80;48.88;;;11.80;99.90;;;;;;6148436;23;20005;-74
2022/02/21 10:59:37;;;;;;;92.45;38.97;;;11.80;99.90;;;;;;6150501;23;20006;-73
2022/02/21 11:02:04;;;;;;;70.10;34.05;;;11.80;99.90;;;;;;6126669;23;20010;-80
2022/02/21 11:04:30;;;;;;;72.85;32.50;;;11.90;99.90;;;;;;6151911;23;20005;-80
2022/02/21 11:06:58;;;;;;;77.32;30.48;;;12.00;99.90;;;;;;6154884;23;20012;-80
2022/02/21 11:09:29;;;;;;;71.10;29.92;;;12.10;99.90;;;;;;6154805;23;20004;-80
2022/02/21 11:12:00;;;;;;;72.63;31.65;;;12.10;99.90;;;;;;6153344;23;20056;-80
2022/02/21 11:14:27;;;;;;;75.28;32.90;;;12.20;99.90;;;;;;6151568;23;20004;-80
2022/02/21 11:16:55;;;;;;;74.45;33.08;;;12.20;99.90;;;;;;6151118;23;20085;-80
2022/02/21 11:19:21;;;;;;;70.93;31.00;;;12.20;99.90;;;;;;6151396;23;20389;-80
2022/02/21 11:21:48;;;;;;;73.18;31.83;;;12.30;99.90;;;;;;6151726;23;20084;-80
2022/02/21 11:24:16;;;;;;;74.38;31.40;;;12.30;99.90;;;;;;6153492;23;20461;-80
2022/02/21 11:27:03;;;;;;;72.80;31.58;;;12.40;99.90;;;;;;6153398;23;20084;-80
2022/02/21 11:29:42;;;;;;;71.32;31.65;;;12.40;99.90;;;;;;6127604;23;20001;-80
2022/02/21 11:32:16;;;;;;;64.63;30.23;;;12.40;99.90;;;;;;6153636;23;20334;-80
2022/02/21 11:34:46;;;;;;;65.15;29.15;;;12.40;99.90;;;;;;6153585;23;20253;-80
2022/02/21 11:37:25;;;;;;;57.60;26.98;;;12.50;99.90;;;;;;6153531;23;20001;-80
2022/02/21 11:39:58;;;;;;;55.83;26.67;;;12.50;99.90;;;;;;6153865;23;20006;-80
2022/02/21 11:42:30;;;;;;;65.10;27.15;;;12.60;99.90;;;;;;6153862;23;20005;-80
2022/02/21 11:44:58;;;;;;;44.03;20.85;;;12.70;99.90;;;;;;6153747;23;20000;-80
2022/02/21 11:47:58;;;;;;;47.72;20.55;;;12.80;99.90;;;;;;6127432;23;20012;-80
2022/02/21 11:50:25;;;;;;;36.83;16.65;;;12.80;99.90;;;;;;6096127;23;20009;-80
2022/02/21 11:52:54;;;;;;;26.58;13.57;;;12.80;99.90;;;;;;6151205;23;20033;-80
2022/02/21 11:55:41;;;;;;;26.13;11.77;;;12.90;99.90;;;;;;6153684;23;20026;-80
2022/02/21 11:58:15;;;;;;;28.02;13.93;;;12.90;99.90;;;;;;6155877;23;19997;-79
2022/02/21 12:00:42;;;;;;;24.70;12.10;;;12.80;99.90;;;;;;6155759;23;20006;-80
2022/02/21 12:03:08;;;;;;;29.00;12.30;;;12.80;99.90;;;;;;6155810;23;20342;-80
2022/02/21 12:05:33;;;;;;;30.13;12.02;;;12.80;99.90;;;;;;6155408;23;20002;-80
2022/02/21 12:07:59;;;;;;;25.08;11.07;;;12.80;99.90;;;;;;6155539;23;20005;-80
2022/02/21 12:10:25;;;;;;;24.80;10.65;;;12.90;99.90;;;;;;6129387;23;20299;-80
2022/02/21 12:13:15;;;;;;;28.05;11.13;;;12.90;99.90;;;;;;6155556;23;20314;-80
2022/02/21 12:15:59;;;;;;;16.15;8.57;;;12.90;99.90;;;;;;6144540;23;20036;-80
2022/02/21 12:18:46;;;;;;;17.58;8.35;;;12.90;99.90;;;;;;6155190;23;20608;-80
2022/02/21 12:21:21;;;;;;;15.45;7.32;;;12.90;99.90;;;;;;6155275;23;20005;-80
2022/02/21 12:23:53;;;;;;;15.70;7.30;;;12.90;99.90;;;;;;6129002;23;20033;-80
2022/02/21 12:26:22;;;;;;;9.27;6.63;;;13.00;99.90;;;;;;6129118;23;20016;-80
2022/02/21 12:29:08;;;;;;;14.30;7.28;;;13.10;99.90;;;;;;6155471;23;20311;-80